createdAt,value
2023-08-17T00:01:55.003Z,59.50
2023-08-17T00:04:21.543Z,59.50
2023-08-17T00:06:48.052Z,59.50
2023-08-17T00:09:14.595Z,59.50
2023-08-17T00:11:41.130Z,59.50
2023-08-17T00:14:07.640Z,59.40
2023-08-17T00:16:34.236Z,59.40
2023-08-17T00:19:00.783Z,59.40
2023-08-17T00:21:27.348Z,59.40
2023-08-17T00:23:53.875Z,59.20
2023-08-17T00:26:20.409Z,59.30
2023-08-17T00:28:46.927Z,59.30
2023-08-17T00:31:13.464Z,59.20
2023-08-17T00:33:40.007Z,59.20
2023-08-17T00:36:06.548Z,59.20
2023-08-17T00:38:33.071Z,59.30
2023-08-17T00:40:59.577Z,59.10
2023-08-17T00:43:26.154Z,59.20
2023-08-17T00:45:52.706Z,59.10
2023-08-17T00:48:19.269Z,59.20
2023-08-17T00:50:45.796Z,59.10
2023-08-17T00:53:12.410Z,59.20
2023-08-17T00:55:38.951Z,59.10
2023-08-17T00:58:05.468Z,59.10
2023-08-17T01:00:31.992Z,59.10
2023-08-17T01:02:58.531Z,59.10
2023-08-17T01:05:25.233Z,59.10
2023-08-17T01:07:51.797Z,59.10
2023-08-17T01:10:18.312Z,59.10
2023-08-17T01:12:44.808Z,59.20
2023-08-17T01:15:11.338Z,59.10
2023-08-17T01:17:37.896Z,59.20
2023-08-17T01:20:04.482Z,59.20
2023-08-17T01:22:30.992Z,59.20
2023-08-17T01:24:57.471Z,59.20
2023-08-17T01:27:24.168Z,59.20
2023-08-17T01:29:50.879Z,59.30
2023-08-17T01:32:17.423Z,59.30
2023-08-17T01:34:43.930Z,59.30
2023-08-17T01:37:10.447Z,59.30
2023-08-17T01:39:36.977Z,59.40
2023-08-17T01:42:03.461Z,59.40
2023-08-17T01:44:29.993Z,59.30
2023-08-17T01:46:56.537Z,59.40
2023-08-17T01:49:23.050Z,59.40
2023-08-17T01:51:49.627Z,59.40
2023-08-17T01:54:16.158Z,59.40
2023-08-17T01:56:42.649Z,59.40
2023-08-17T01:59:09.170Z,59.40
2023-08-17T02:01:35.673Z,59.40
2023-08-17T02:04:02.234Z,59.40
2023-08-17T02:06:29.001Z,59.50
2023-08-17T02:08:55.516Z,59.50
2023-08-17T02:11:22.011Z,59.40
2023-08-17T02:13:48.516Z,59.50
2023-08-17T02:16:15.047Z,59.40
2023-08-17T02:18:41.582Z,59.40
2023-08-17T02:21:08.165Z,59.50
2023-08-17T02:23:34.794Z,59.50
2023-08-17T02:26:01.289Z,59.50
2023-08-17T02:28:27.857Z,59.50
2023-08-17T02:30:54.404Z,59.50
2023-08-17T02:33:20.940Z,59.50
2023-08-17T02:35:47.482Z,59.60
2023-08-17T02:38:14.302Z,59.60
2023-08-17T02:40:40.805Z,59.60
2023-08-17T02:43:07.313Z,59.60
2023-08-17T02:45:33.804Z,59.60
2023-08-17T02:48:00.377Z,59.60
2023-08-17T02:50:26.944Z,59.70
2023-08-17T02:52:53.460Z,59.70
2023-08-17T02:55:19.974Z,59.70
2023-08-17T02:57:46.488Z,59.70
2023-08-17T03:00:13.008Z,59.80
2023-08-17T03:02:39.672Z,59.80
2023-08-17T03:05:06.522Z,59.80
2023-08-17T03:07:33.061Z,59.90
2023-08-17T03:09:59.562Z,59.90
2023-08-17T03:12:26.087Z,59.90
2023-08-17T03:14:52.563Z,59.90
2023-08-17T03:17:19.065Z,60.00
2023-08-17T03:19:45.568Z,60.00
2023-08-17T03:22:12.359Z,60.00
2023-08-17T03:24:38.932Z,60.00
2023-08-17T03:27:05.476Z,60.10
2023-08-17T03:29:31.976Z,60.00
2023-08-17T03:31:58.476Z,60.00
2023-08-17T03:34:25.052Z,60.00
2023-08-17T03:36:51.560Z,60.10
2023-08-17T03:39:18.058Z,60.10
2023-08-17T03:41:44.596Z,60.10
2023-08-17T03:44:11.118Z,60.10
2023-08-17T03:46:37.622Z,60.20
2023-08-17T03:49:04.157Z,60.10
2023-08-17T03:51:30.728Z,60.10
2023-08-17T03:53:57.250Z,60.20
2023-08-17T03:56:23.813Z,60.20
2023-08-17T03:58:50.310Z,60.00
2023-08-17T04:01:16.848Z,59.90
2023-08-17T04:03:43.412Z,59.80
2023-08-17T04:06:09.912Z,60.40
2023-08-17T04:08:36.430Z,59.70
2023-08-17T04:11:03.213Z,59.70
2023-08-17T04:13:29.751Z,59.70
2023-08-17T04:15:56.266Z,59.70
2023-08-17T04:18:22.775Z,59.60
2023-08-17T04:20:49.294Z,59.60
2023-08-17T04:23:15.796Z,59.60
2023-08-17T04:25:42.314Z,59.60
2023-08-17T04:28:08.821Z,59.70
2023-08-17T04:30:35.324Z,59.70
2023-08-17T04:33:04.445Z,59.80
2023-08-17T04:35:30.988Z,59.80
2023-08-17T04:37:57.525Z,59.80
2023-08-17T04:40:24.069Z,59.80
2023-08-17T04:42:50.591Z,59.80
2023-08-17T04:45:17.097Z,59.80
2023-08-17T04:50:37.534Z,59.70
2023-08-17T04:53:07.865Z,59.70
2023-08-17T04:55:34.383Z,59.70
2023-08-17T04:58:00.888Z,59.70
2023-08-17T05:03:32.820Z,59.60
2023-08-17T05:06:00.456Z,59.70
2023-08-17T05:08:26.956Z,59.60
2023-08-17T05:10:53.461Z,59.60
2023-08-17T05:13:19.997Z,59.70
2023-08-17T05:15:46.629Z,59.60
2023-08-17T05:18:13.176Z,59.60
2023-08-17T05:20:39.680Z,59.60
2023-08-17T05:23:06.233Z,59.60
2023-08-17T05:25:32.777Z,59.50
2023-08-17T05:28:02.527Z,59.40
2023-08-17T05:30:29.041Z,59.30
2023-08-17T05:32:55.654Z,59.20
2023-08-17T05:35:22.208Z,59.30
2023-08-17T05:37:48.706Z,59.20
2023-08-17T05:40:15.254Z,59.20
2023-08-17T05:42:41.814Z,59.20
2023-08-17T05:45:08.343Z,59.20
2023-08-17T05:47:34.948Z,59.20
2023-08-17T05:50:01.542Z,59.20
2023-08-17T05:52:28.063Z,59.20
2023-08-17T05:54:54.560Z,59.20
2023-08-17T05:57:21.070Z,59.20
2023-08-17T05:59:47.577Z,59.20
2023-08-17T06:02:14.063Z,59.20
2023-08-17T06:04:40.601Z,59.20
2023-08-17T06:07:07.121Z,59.20
2023-08-17T06:09:33.619Z,59.20
2023-08-17T06:12:00.167Z,59.20
2023-08-17T06:14:26.671Z,59.20
2023-08-17T06:16:53.234Z,59.10
2023-08-17T06:19:23.895Z,59.20
2023-08-17T06:21:50.428Z,59.20
2023-08-17T06:24:16.965Z,59.20
2023-08-17T06:26:43.499Z,59.20
2023-08-17T06:29:10.110Z,59.20
2023-08-17T06:31:36.608Z,59.10
2023-08-17T06:34:09.397Z,59.10
2023-08-17T06:36:35.968Z,59.20
2023-08-17T06:39:02.506Z,59.20
2023-08-17T06:44:23.243Z,59.20
2023-08-17T06:46:53.274Z,59.20
2023-08-17T06:49:19.814Z,59.20
2023-08-17T06:51:46.353Z,59.20
2023-08-17T06:54:16.948Z,59.20
2023-08-17T06:56:43.469Z,59.20
2023-08-17T06:59:10.280Z,59.30
2023-08-17T07:01:36.875Z,59.30
2023-08-17T07:04:03.446Z,59.30
2023-08-17T07:06:29.991Z,59.30
2023-08-17T07:08:56.525Z,59.30
2023-08-17T07:11:23.082Z,59.20
2023-08-17T07:13:49.567Z,59.20
2023-08-17T07:19:10.442Z,59.10
2023-08-17T07:21:36.964Z,59.10
2023-08-17T07:24:03.494Z,59.10
2023-08-17T07:26:30.009Z,59.00
2023-08-17T07:28:56.566Z,59.10
2023-08-17T07:31:23.122Z,59.00
2023-08-17T07:33:49.647Z,59.00
2023-08-17T07:36:16.138Z,59.00
2023-08-17T07:38:42.936Z,59.00
2023-08-17T07:41:09.444Z,58.80
2023-08-17T07:43:36.065Z,58.60
2023-08-17T07:46:02.682Z,58.50
2023-08-17T07:48:29.190Z,58.30
2023-08-17T07:50:55.693Z,58.30
2023-08-17T07:53:22.202Z,58.20
2023-08-17T07:55:49.870Z,58.10
2023-08-17T07:58:17.637Z,58.10
2023-08-17T08:00:44.123Z,58.10
2023-08-17T08:03:10.723Z,58.10
2023-08-17T08:05:37.458Z,58.10
2023-08-17T08:08:03.981Z,58.40
2023-08-17T08:10:30.474Z,58.50
2023-08-17T08:13:03.393Z,58.60
2023-08-17T08:15:29.978Z,58.10
2023-08-17T08:17:56.479Z,57.70
2023-08-17T08:23:17.328Z,57.20
2023-08-17T08:25:43.888Z,57.40
2023-08-17T08:28:10.385Z,57.40
2023-08-17T08:30:36.882Z,57.50
2023-08-17T08:33:07.463Z,57.50
2023-08-17T08:35:33.984Z,57.60
2023-08-17T08:38:00.477Z,57.90
2023-08-17T08:40:31.180Z,58.30
2023-08-17T08:42:57.671Z,57.90
2023-08-17T08:45:24.320Z,58.20
2023-08-17T08:50:44.950Z,58.00
2023-08-17T08:53:15.450Z,58.00
2023-08-17T08:55:45.912Z,57.90
2023-08-17T08:58:12.823Z,58.70
2023-08-17T09:00:47.854Z,58.20
2023-08-17T09:03:14.494Z,58.20
2023-08-17T09:05:41.003Z,58.10
2023-08-17T09:11:01.836Z,58.10
2023-08-17T09:13:34.354Z,58.30
2023-08-17T09:16:00.909Z,58.40
2023-08-17T09:18:27.435Z,58.40
2023-08-17T09:20:53.942Z,57.60
2023-08-17T09:23:20.501Z,56.90
2023-08-17T09:25:47.022Z,56.50
2023-08-17T09:28:14.857Z,56.70
2023-08-17T09:30:41.375Z,57.20
2023-08-17T09:33:07.895Z,57.60
2023-08-17T09:35:41.428Z,57.60
2023-08-17T09:38:10.137Z,57.50
2023-08-17T09:40:36.830Z,56.80
2023-08-17T09:43:03.399Z,56.50
2023-08-17T09:45:30.015Z,56.50
2023-08-17T09:47:56.514Z,56.50
2023-08-17T09:50:29.350Z,56.60
2023-08-17T09:52:55.846Z,56.80
2023-08-17T09:55:22.356Z,57.10
2023-08-17T09:57:48.896Z,57.20
2023-08-17T10:00:15.488Z,57.90
2023-08-17T10:02:42.023Z,57.30
2023-08-17T10:05:08.713Z,57.60
2023-08-17T10:07:35.276Z,57.90
2023-08-17T10:10:01.871Z,58.00
2023-08-17T10:12:28.841Z,58.20
2023-08-17T10:14:55.598Z,58.30
2023-08-17T10:17:22.447Z,58.50
2023-08-17T10:19:49.037Z,58.50
2023-08-17T10:22:19.238Z,58.50
2023-08-17T10:24:46.787Z,58.50
2023-08-17T10:27:18.069Z,58.70
2023-08-17T10:29:44.614Z,58.80
2023-08-17T10:34:42.723Z,58.80
2023-08-17T10:37:09.218Z,59.00
2023-08-17T10:39:35.725Z,59.20
2023-08-17T10:42:08.376Z,59.30
2023-08-17T10:44:34.853Z,59.30
2023-08-17T10:47:01.340Z,59.40
2023-08-17T10:49:27.855Z,60.00
2023-08-17T10:51:54.618Z,59.40
2023-08-17T10:54:21.134Z,59.60
2023-08-17T10:56:47.660Z,60.30
2023-08-17T10:59:16.516Z,59.60
2023-08-17T11:01:43.247Z,59.60
2023-08-17T11:04:14.062Z,59.60
2023-08-17T11:06:40.848Z,59.70
2023-08-17T11:09:07.444Z,59.70
2023-08-17T11:11:34.004Z,59.80
2023-08-17T11:14:00.526Z,59.80
2023-08-17T11:16:27.058Z,59.90
2023-08-17T11:18:53.610Z,59.80
2023-08-17T11:21:20.626Z,59.90
2023-08-17T11:23:47.453Z,60.40
2023-08-17T11:26:14.157Z,59.80
2023-08-17T11:28:43.406Z,60.00
2023-08-17T11:31:10.342Z,60.00
2023-08-17T11:33:36.876Z,60.00
2023-08-17T11:36:03.919Z,60.40
2023-08-17T11:38:30.846Z,60.00
2023-08-17T11:40:57.405Z,61.60
2023-08-17T11:43:23.896Z,60.50
2023-08-17T11:45:50.440Z,60.20
2023-08-17T11:48:17.000Z,60.60
2023-08-17T11:50:43.510Z,60.80
2023-08-17T11:53:10.084Z,60.10
2023-08-17T11:58:30.435Z,60.40
2023-08-17T12:00:57.881Z,60.40
2023-08-17T12:03:24.526Z,60.40
2023-08-17T12:05:51.089Z,60.40
2023-08-17T12:08:17.616Z,60.50
2023-08-17T12:10:44.106Z,60.60
2023-08-17T12:13:10.590Z,60.60
2023-08-17T12:18:31.067Z,60.70
2023-08-17T12:21:04.453Z,60.70
2023-08-17T12:23:30.991Z,60.70
2023-08-17T12:25:57.482Z,60.70
2023-08-17T12:28:23.984Z,60.70
2023-08-17T12:30:50.505Z,60.70
2023-08-17T12:33:17.074Z,60.80
2023-08-17T12:35:44.003Z,60.80
2023-08-17T12:38:10.565Z,60.90
2023-08-17T12:40:37.200Z,60.90
2023-08-17T12:43:15.420Z,61.00
2023-08-17T12:45:42.540Z,61.00
2023-08-17T12:48:09.176Z,61.00
2023-08-17T12:53:09.179Z,61.20
2023-08-17T12:55:35.695Z,61.10
2023-08-17T12:58:02.381Z,61.20
2023-08-17T13:00:28.882Z,61.30
2023-08-17T13:02:55.398Z,61.30
2023-08-17T13:05:25.707Z,61.50
2023-08-17T13:07:52.229Z,61.60
2023-08-17T13:10:18.764Z,61.70
2023-08-17T13:12:51.392Z,61.70
2023-08-17T13:15:17.976Z,61.70
2023-08-17T13:17:44.512Z,61.90
2023-08-17T13:20:15.313Z,61.90
2023-08-17T13:22:41.803Z,62.00
2023-08-17T13:25:08.301Z,62.10
2023-08-17T13:27:40.285Z,62.10
2023-08-17T13:30:06.809Z,62.20
2023-08-17T13:32:33.338Z,62.10
2023-08-17T13:35:06.421Z,62.20
2023-08-17T13:37:32.964Z,62.30
2023-08-17T13:39:59.534Z,62.30
2023-08-17T13:42:26.275Z,62.40
2023-08-17T13:44:53.063Z,62.40
2023-08-17T13:47:19.553Z,62.40
2023-08-17T13:49:46.057Z,62.50
2023-08-17T13:52:12.618Z,62.60
2023-08-17T13:54:39.099Z,62.60
2023-08-17T13:57:05.619Z,62.60
2023-08-17T13:59:32.108Z,62.70
2023-08-17T14:01:58.676Z,62.70
2023-08-17T14:04:29.127Z,62.80
2023-08-17T14:06:55.745Z,63.00
2023-08-17T14:09:22.286Z,63.10
2023-08-17T14:11:52.782Z,63.20
2023-08-17T14:14:19.285Z,63.30
2023-08-17T14:16:45.803Z,63.40
2023-08-17T14:19:12.314Z,63.40
2023-08-17T14:21:38.812Z,63.50
2023-08-17T14:24:05.321Z,63.60
2023-08-17T14:26:35.101Z,63.50
2023-08-17T14:29:01.859Z,63.60
2023-08-17T14:31:28.436Z,63.70
2023-08-17T14:33:54.997Z,63.80
2023-08-17T14:36:21.485Z,63.80
2023-08-17T14:38:47.985Z,63.80
2023-08-17T14:41:14.506Z,63.90
2023-08-17T14:43:41.074Z,64.00
2023-08-17T14:46:07.661Z,64.10
2023-08-17T14:48:34.223Z,64.00
2023-08-17T14:51:00.702Z,64.10
2023-08-17T14:53:27.200Z,64.00
2023-08-17T14:55:53.688Z,64.10
2023-08-17T14:58:20.168Z,64.10
2023-08-17T15:00:46.669Z,64.10
2023-08-17T15:03:13.292Z,64.20
2023-08-17T15:05:39.853Z,64.10
2023-08-17T15:08:06.353Z,64.10
2023-08-17T15:10:32.879Z,64.20
2023-08-17T15:12:59.361Z,64.20
2023-08-17T15:15:25.848Z,64.30
2023-08-17T15:17:58.432Z,64.30
2023-08-17T15:20:24.920Z,64.30
2023-08-17T15:22:51.434Z,64.30
2023-08-17T15:25:17.974Z,64.20
2023-08-17T15:27:44.446Z,64.30
2023-08-17T15:30:10.947Z,64.40
2023-08-17T15:32:37.472Z,64.30
2023-08-17T15:35:03.986Z,64.20
2023-08-17T15:37:30.869Z,64.40
2023-08-17T15:39:57.740Z,64.50
2023-08-17T15:42:24.269Z,64.40
2023-08-17T15:44:50.799Z,64.40
2023-08-17T15:47:17.308Z,64.30
2023-08-17T15:49:43.790Z,64.30
2023-08-17T15:52:12.322Z,64.30
2023-08-17T15:54:39.089Z,64.40
2023-08-17T15:57:05.793Z,64.40
2023-08-17T15:59:32.506Z,64.50
2023-08-17T16:01:59.018Z,64.40
2023-08-17T16:04:25.498Z,64.50
2023-08-17T16:06:51.992Z,64.30
2023-08-17T16:09:18.500Z,64.40
2023-08-17T16:11:45.023Z,64.20
2023-08-17T16:14:11.564Z,64.70
2023-08-17T16:16:38.086Z,64.30
2023-08-17T16:19:05.335Z,64.50
2023-08-17T16:21:31.994Z,64.40
2023-08-17T16:23:58.496Z,64.10
2023-08-17T16:26:25.028Z,64.10
2023-08-17T16:28:51.798Z,64.00
2023-08-17T16:31:18.423Z,64.00
2023-08-17T16:33:44.952Z,64.00
2023-08-17T16:36:11.469Z,63.90
2023-08-17T16:38:38.017Z,63.90
2023-08-17T16:41:04.552Z,63.90
2023-08-17T16:43:31.040Z,63.90
2023-08-17T16:45:57.624Z,63.90
2023-08-17T16:48:25.260Z,64.00
2023-08-17T16:50:51.935Z,63.90
2023-08-17T16:53:18.482Z,63.90
2023-08-17T16:55:46.456Z,63.90
2023-08-17T16:58:20.282Z,63.90
2023-08-17T17:00:46.826Z,63.90
2023-08-17T17:03:13.358Z,63.90
2023-08-17T17:05:39.865Z,63.80
2023-08-17T17:08:06.354Z,63.90
2023-08-17T17:10:32.842Z,63.80
2023-08-17T17:12:59.345Z,63.80
2023-08-17T17:15:25.843Z,63.90
2023-08-17T17:17:52.360Z,63.80
2023-08-17T17:20:18.922Z,63.80
2023-08-17T17:22:45.406Z,63.90
2023-08-17T17:25:11.891Z,63.90
2023-08-17T17:27:38.440Z,63.90
2023-08-17T17:30:04.933Z,63.80
2023-08-17T17:32:31.501Z,63.90
2023-08-17T17:34:58.024Z,64.00
2023-08-17T17:37:24.512Z,63.90
2023-08-17T17:39:51.043Z,63.90
2023-08-17T17:42:17.682Z,63.90
2023-08-17T17:44:44.170Z,63.90
2023-08-17T17:47:10.670Z,63.90
2023-08-17T17:49:37.181Z,63.90
2023-08-17T17:52:03.665Z,63.90
2023-08-17T17:54:30.158Z,63.90
2023-08-17T17:56:56.665Z,63.90
2023-08-17T17:59:23.150Z,64.00
2023-08-17T18:01:49.658Z,64.00
2023-08-17T18:04:16.182Z,63.90
2023-08-17T18:06:42.664Z,64.00
2023-08-17T18:09:09.213Z,64.00
2023-08-17T18:11:35.721Z,64.00
2023-08-17T18:14:02.215Z,64.80
2023-08-17T18:16:28.830Z,64.00
2023-08-17T18:18:55.357Z,64.80
2023-08-17T18:21:21.860Z,64.00
2023-08-17T18:23:48.359Z,64.00
2023-08-17T18:26:14.870Z,64.00
2023-08-17T18:28:41.373Z,64.00
2023-08-17T18:31:07.905Z,64.00
2023-08-17T18:33:34.435Z,64.00
2023-08-17T18:36:00.938Z,64.00
2023-08-17T18:38:27.431Z,64.10
2023-08-17T18:40:54.569Z,64.10
2023-08-17T18:43:21.226Z,64.00
2023-08-17T18:45:47.720Z,64.10
2023-08-17T18:48:14.278Z,64.00
2023-08-17T18:50:40.848Z,64.10
2023-08-17T18:53:07.329Z,64.10
2023-08-17T18:55:33.834Z,64.10
2023-08-17T18:58:00.316Z,64.20
2023-08-17T19:00:26.843Z,64.20
2023-08-17T19:02:53.494Z,64.10
2023-08-17T19:05:20.072Z,64.10
2023-08-17T19:07:46.566Z,64.20
2023-08-17T19:10:13.080Z,64.90
2023-08-17T19:12:39.555Z,64.10
2023-08-17T19:15:06.031Z,64.20
2023-08-17T19:17:33.172Z,64.20
2023-08-17T19:19:59.928Z,64.20
2023-08-17T19:22:26.425Z,64.10
2023-08-17T19:24:53.180Z,64.20
2023-08-17T19:27:19.667Z,64.10
2023-08-17T19:29:46.149Z,64.20
2023-08-17T19:32:12.649Z,64.10
2023-08-17T19:34:39.132Z,64.20
2023-08-17T19:37:05.651Z,64.20
2023-08-17T19:39:32.158Z,64.20
2023-08-17T19:41:58.649Z,64.20
2023-08-17T19:44:25.125Z,64.20
2023-08-17T19:46:51.629Z,64.20
2023-08-17T19:49:18.113Z,64.20
2023-08-17T19:51:45.738Z,64.20
2023-08-17T19:54:13.929Z,64.20
2023-08-17T19:56:40.420Z,64.20
2023-08-17T19:59:06.905Z,64.20
2023-08-17T20:01:33.466Z,64.20
2023-08-17T20:03:59.988Z,64.30
2023-08-17T20:06:26.541Z,64.30
2023-08-17T20:08:53.039Z,64.20
2023-08-17T20:11:19.557Z,64.20
2023-08-17T20:13:46.091Z,64.30
2023-08-17T20:16:12.666Z,64.30
2023-08-17T20:18:39.174Z,64.20
2023-08-17T20:21:05.657Z,64.30
2023-08-17T20:23:32.157Z,64.40
2023-08-17T20:25:58.662Z,64.30
2023-08-17T20:28:25.153Z,64.30
2023-08-17T20:30:51.715Z,64.30
2023-08-17T20:33:18.194Z,64.40
2023-08-17T20:35:44.688Z,64.40
2023-08-17T20:38:11.196Z,64.30
2023-08-17T20:40:37.677Z,64.30
2023-08-17T20:43:04.210Z,64.30
2023-08-17T20:45:30.748Z,65.10
2023-08-17T20:47:57.278Z,64.40
2023-08-17T20:50:23.765Z,64.40
2023-08-17T20:52:50.284Z,64.40
2023-08-17T20:55:16.771Z,64.40
2023-08-17T20:57:43.256Z,64.50
2023-08-17T21:00:09.814Z,64.50
2023-08-17T21:02:36.334Z,64.60
2023-08-17T21:05:02.875Z,65.50
2023-08-17T21:07:31.016Z,64.90
2023-08-17T21:09:57.906Z,64.90
2023-08-17T21:12:24.387Z,65.00
2023-08-17T21:14:50.886Z,65.10
2023-08-17T21:17:17.362Z,65.20
2023-08-17T21:19:43.833Z,65.20
2023-08-17T21:22:10.390Z,65.30
2023-08-17T21:24:36.876Z,65.40
2023-08-17T21:27:03.366Z,65.40
2023-08-17T21:29:29.867Z,65.50
2023-08-17T21:31:56.360Z,65.50
2023-08-17T21:34:22.847Z,65.50
2023-08-17T21:36:49.397Z,65.50
2023-08-17T21:39:15.875Z,65.50
2023-08-17T21:41:42.359Z,65.60
2023-08-17T21:44:08.859Z,65.60
2023-08-17T21:46:35.400Z,65.60
2023-08-17T21:49:01.933Z,65.60
2023-08-17T21:51:28.451Z,65.60
2023-08-17T21:53:54.964Z,65.70
2023-08-17T21:56:21.523Z,66.30
2023-08-17T21:58:48.028Z,65.60
2023-08-17T22:01:14.587Z,65.60
2023-08-17T22:03:41.275Z,65.60
2023-08-17T22:06:07.830Z,65.60
2023-08-17T22:08:34.323Z,65.70
2023-08-17T22:11:00.806Z,65.60
2023-08-17T22:13:27.336Z,65.60
2023-08-17T22:15:53.830Z,65.60
2023-08-17T22:18:20.327Z,65.70
2023-08-17T22:21:15.619Z,65.60
2023-08-17T22:23:42.106Z,66.40
2023-08-17T22:26:08.641Z,65.70
2023-08-17T22:28:35.153Z,65.70
2023-08-17T22:31:01.685Z,65.70
2023-08-17T22:33:28.221Z,65.70
2023-08-17T22:35:54.797Z,65.80
2023-08-17T22:38:21.294Z,65.80
2023-08-17T22:40:47.784Z,65.80
2023-08-17T22:43:14.295Z,65.80
2023-08-17T22:45:40.782Z,65.80
2023-08-17T22:48:07.327Z,65.80
2023-08-17T22:50:33.856Z,65.80
2023-08-17T22:53:00.330Z,65.80
2023-08-17T22:55:26.804Z,66.60
2023-08-17T22:57:53.382Z,65.90
2023-08-17T23:00:19.863Z,65.90
2023-08-17T23:02:46.420Z,66.00
2023-08-17T23:05:12.952Z,65.90
2023-08-17T23:07:39.423Z,65.90
2023-08-17T23:10:05.888Z,65.90
2023-08-17T23:12:32.395Z,66.00
2023-08-17T23:14:58.879Z,66.00
2023-08-17T23:17:25.361Z,65.90
2023-08-17T23:19:51.902Z,66.10
2023-08-17T23:22:18.423Z,66.00
2023-08-17T23:24:44.989Z,66.10
2023-08-17T23:27:11.477Z,66.00
2023-08-17T23:29:37.959Z,66.00
2023-08-17T23:32:20.565Z,66.00
2023-08-17T23:34:50.906Z,66.00
2023-08-17T23:37:17.386Z,66.00
2023-08-17T23:39:44.083Z,66.00
2023-08-17T23:42:10.634Z,66.00
2023-08-17T23:44:37.132Z,66.10
2023-08-17T23:47:03.615Z,66.10
2023-08-17T23:49:30.134Z,66.20
2023-08-17T23:51:56.622Z,66.20
2023-08-17T23:54:23.099Z,66.20
2023-08-17T23:56:49.594Z,66.30
2023-08-17T23:59:16.071Z,66.20
